createdAt,value
2018-03-03T00:01:17.023Z,41.57
2018-03-03T00:04:20.194Z,43.53
2018-03-03T00:07:23.406Z,43.13
2018-03-03T00:10:26.638Z,43.70
2018-03-03T00:13:29.778Z,45.10
2018-03-03T00:16:32.936Z,43.63
2018-03-03T00:19:36.089Z,45.77
2018-03-03T00:22:42.113Z,43.17
2018-03-03T00:25:45.378Z,41.97
2018-03-03T00:28:48.547Z,43.50
2018-03-03T00:31:51.715Z,41.70
2018-03-03T00:34:55.011Z,41.70
2018-03-03T00:37:58.267Z,43.37
2018-03-03T00:41:01.424Z,41.87
2018-03-03T00:44:04.627Z,41.07
2018-03-03T00:47:07.785Z,42.07
2018-03-03T00:50:10.927Z,41.07
2018-03-03T00:53:14.114Z,45.80
2018-03-03T00:56:17.305Z,44.30
2018-03-03T00:59:21.183Z,43.90
2018-03-03T01:02:24.322Z,44.73
2018-03-03T01:05:27.704Z,43.10
2018-03-03T01:08:30.919Z,44.10
2018-03-03T01:11:34.115Z,42.40
2018-03-03T01:14:37.306Z,45.70
2018-03-03T01:17:40.521Z,42.87
2018-03-03T01:20:43.700Z,44.87
2018-03-03T01:23:46.872Z,44.43
2018-03-03T01:26:50.801Z,45.55
2018-03-03T01:29:53.956Z,41.85
2018-03-03T01:32:57.258Z,44.27
2018-03-03T01:36:00.477Z,45.47
2018-03-03T01:42:41.243Z,44.93
2018-03-03T01:45:44.507Z,43.70
2018-03-03T01:48:47.775Z,44.70
2018-03-03T01:51:52.333Z,42.93
2018-03-03T01:54:55.473Z,45.37
2018-03-03T01:57:58.636Z,46.73
2018-03-03T02:01:01.851Z,45.03
2018-03-03T02:04:05.039Z,45.70
2018-03-03T02:07:08.265Z,48.67
2018-03-03T02:10:11.451Z,44.13
2018-03-03T02:13:14.642Z,46.70
2018-03-03T02:16:17.829Z,45.10
2018-03-03T02:19:21.630Z,44.77
2018-03-03T02:22:24.825Z,47.27
2018-03-03T02:29:05.653Z,46.85
2018-03-03T02:32:19.334Z,47.75
2018-03-03T02:35:22.532Z,46.60
2018-03-03T02:38:25.769Z,45.60
2018-03-03T02:41:29.027Z,48.23
2018-03-03T02:44:32.258Z,48.40
2018-03-03T02:47:35.402Z,50.07
2018-03-03T02:50:38.592Z,47.60
2018-03-03T02:53:41.801Z,48.28
2018-03-03T02:56:44.997Z,48.15
2018-03-03T02:59:48.191Z,50.12
2018-03-03T03:02:51.390Z,50.38
2018-03-03T03:05:55.588Z,51.00
2018-03-03T03:08:58.818Z,50.88
2018-03-03T03:12:02.069Z,50.25
2018-03-03T03:15:05.306Z,54.35
2018-03-03T03:18:08.514Z,53.52
2018-03-03T03:21:11.708Z,51.37
2018-03-03T03:24:14.924Z,52.65
2018-03-03T03:27:18.105Z,53.78
2018-03-03T03:30:21.284Z,55.70
2018-03-03T03:33:24.527Z,52.50
2018-03-03T03:36:27.726Z,51.83
2018-03-03T03:39:30.906Z,48.23
2018-03-03T03:42:35.178Z,48.97
2018-03-03T03:45:38.312Z,51.97
2018-03-03T03:48:41.496Z,50.77
2018-03-03T03:51:44.725Z,51.00
2018-03-03T03:54:47.898Z,50.33
2018-03-03T03:57:51.103Z,49.90
2018-03-03T04:00:54.526Z,49.43
2018-03-03T04:03:57.746Z,48.83
2018-03-03T04:07:00.892Z,49.63
2018-03-03T04:10:05.146Z,50.30
2018-03-03T04:13:08.305Z,51.33
2018-03-03T04:16:11.506Z,51.13
2018-03-03T04:19:14.718Z,53.10
2018-03-03T04:22:17.891Z,51.60
2018-03-03T04:25:21.059Z,53.23
2018-03-03T04:28:24.199Z,53.13
2018-03-03T04:31:27.390Z,51.60
2018-03-03T04:34:30.593Z,51.07
2018-03-03T04:37:34.806Z,52.23
2018-03-03T04:40:37.998Z,51.00
2018-03-03T04:43:41.162Z,47.47
2018-03-03T04:46:44.485Z,47.17
2018-03-03T04:49:47.621Z,51.10
2018-03-03T04:52:50.844Z,53.60
2018-03-03T04:55:53.979Z,53.73
2018-03-03T04:58:57.177Z,53.53
2018-03-03T05:02:00.376Z,54.67
2018-03-03T05:05:03.770Z,53.73
2018-03-03T05:08:06.958Z,55.60
2018-03-03T05:14:40.904Z,52.30
2018-03-03T05:17:44.209Z,51.67
2018-03-03T05:20:48.942Z,54.07
2018-03-03T05:23:54.279Z,54.17
2018-03-03T05:26:58.410Z,52.40
2018-03-03T05:30:02.404Z,51.60
2018-03-03T05:33:05.721Z,49.40
2018-03-03T05:36:09.722Z,53.07
2018-03-03T05:39:13.227Z,54.13
2018-03-03T05:42:17.525Z,55.43
2018-03-03T05:45:24.572Z,54.03
2018-03-03T05:48:28.363Z,54.90
2018-03-03T05:51:31.745Z,57.03
2018-03-03T05:54:35.035Z,55.73
2018-03-03T05:57:39.167Z,55.10
2018-03-03T06:00:42.329Z,55.13
2018-03-03T06:03:45.972Z,48.87
2018-03-03T06:06:49.223Z,55.87
2018-03-03T06:09:52.445Z,53.87
2018-03-03T06:12:55.618Z,53.07
2018-03-03T06:15:58.839Z,54.20
2018-03-03T06:19:01.989Z,53.73
2018-03-03T06:22:05.175Z,55.23
2018-03-03T06:25:08.372Z,56.60
2018-03-03T06:28:11.547Z,58.87
2018-03-03T06:31:14.687Z,57.90
2018-03-03T06:34:18.801Z,55.97
2018-03-03T06:37:21.977Z,56.03
2018-03-03T06:40:25.185Z,58.53
2018-03-03T06:47:06.348Z,56.95
2018-03-03T06:50:09.495Z,58.50
2018-03-03T06:53:12.683Z,55.52
2018-03-03T06:56:16.099Z,56.85
2018-03-03T06:59:19.262Z,53.55
2018-03-03T07:02:22.464Z,54.73
2018-03-03T07:05:25.759Z,53.40
2018-03-03T07:08:29.003Z,54.30
2018-03-03T07:11:32.185Z,56.53
2018-03-03T07:14:35.395Z,54.80
2018-03-03T07:17:38.602Z,53.93
2018-03-03T07:20:41.840Z,55.33
2018-03-03T07:23:45.070Z,54.73
2018-03-03T07:26:48.255Z,50.37
2018-03-03T07:29:51.616Z,54.90
2018-03-03T07:32:55.050Z,54.17
2018-03-03T07:35:58.877Z,53.70
2018-03-03T07:39:02.066Z,52.97
2018-03-03T07:42:05.238Z,55.30
2018-03-03T07:45:08.514Z,55.50
2018-03-03T07:48:11.659Z,54.90
2018-03-03T07:51:14.803Z,53.87
2018-03-03T07:54:18.007Z,55.03
2018-03-03T07:57:21.355Z,48.43
2018-03-03T08:00:24.729Z,49.37
2018-03-03T08:03:27.904Z,53.97
2018-03-03T08:06:31.057Z,53.17
2018-03-03T08:09:34.231Z,55.40
2018-03-03T08:12:37.424Z,54.50
2018-03-03T08:15:40.638Z,54.23
2018-03-03T08:22:14.554Z,52.33
2018-03-03T08:25:18.880Z,47.33
2018-03-03T08:28:22.033Z,56.80
2018-03-03T08:31:25.230Z,54.07
2018-03-03T08:34:28.409Z,50.52
2018-03-03T08:37:31.657Z,53.43
2018-03-03T08:40:34.812Z,54.87
2018-03-03T08:43:37.991Z,52.23
2018-03-03T08:46:41.195Z,48.60
2018-03-03T08:49:44.399Z,50.40
2018-03-03T08:52:47.581Z,50.73
2018-03-03T08:55:50.778Z,48.20
2018-03-03T08:58:53.915Z,50.07
2018-03-03T09:01:57.058Z,48.77
2018-03-03T09:05:00.357Z,49.13
2018-03-03T09:08:03.547Z,47.67
2018-03-03T09:11:06.693Z,41.57
2018-03-03T09:14:09.839Z,43.80
2018-03-03T09:17:13.030Z,44.10
2018-03-03T09:20:16.276Z,43.60
2018-03-03T09:23:19.757Z,41.92
2018-03-03T09:26:22.949Z,44.98
2018-03-03T09:29:26.084Z,42.00
2018-03-03T09:32:29.221Z,41.63
2018-03-03T09:35:32.424Z,41.53
2018-03-03T09:38:35.626Z,41.97
2018-03-03T09:41:38.838Z,44.10
2018-03-03T09:44:42.082Z,41.47
2018-03-03T09:47:45.315Z,41.87
2018-03-03T09:50:48.546Z,42.13
2018-03-03T09:53:51.837Z,39.67
2018-03-03T09:56:54.990Z,41.60
2018-03-03T09:59:58.188Z,39.83
2018-03-03T10:03:01.394Z,38.73
2018-03-03T10:06:04.590Z,41.27
2018-03-03T10:09:07.775Z,40.87
2018-03-03T10:12:10.971Z,44.63
2018-03-03T10:15:14.184Z,45.70
2018-03-03T10:18:17.534Z,45.43
2018-03-03T10:21:20.738Z,45.67
2018-03-03T10:24:23.960Z,48.13
2018-03-03T10:27:27.199Z,46.03
2018-03-03T10:30:30.367Z,42.50
2018-03-03T10:33:33.634Z,46.03
2018-03-03T10:40:15.032Z,44.90
2018-03-03T10:43:18.240Z,44.97
2018-03-03T10:49:59.067Z,43.53
2018-03-03T10:53:02.298Z,42.63
2018-03-03T10:59:43.390Z,40.10
2018-03-03T11:02:46.611Z,36.42
2018-03-03T11:05:49.861Z,41.10
2018-03-03T11:08:53.007Z,39.60
2018-03-03T11:11:56.197Z,39.67
2018-03-03T11:14:59.342Z,39.13
2018-03-03T11:18:02.485Z,40.10
2018-03-03T11:21:05.663Z,38.60
2018-03-03T11:24:08.806Z,39.97
2018-03-03T11:30:50.163Z,38.30
2018-03-03T11:33:54.258Z,37.80
2018-03-03T11:36:57.430Z,37.47
2018-03-03T11:40:00.645Z,38.93
2018-03-03T11:43:03.819Z,39.37
2018-03-03T11:46:07.034Z,39.80
2018-03-03T11:49:10.269Z,40.00
2018-03-03T11:52:13.468Z,42.27
2018-03-03T11:55:16.610Z,39.78
2018-03-03T11:58:19.824Z,41.90
2018-03-03T12:01:24.073Z,40.47
2018-03-03T12:04:27.219Z,39.63
2018-03-03T12:07:30.396Z,40.03
2018-03-03T12:10:33.689Z,40.70
2018-03-03T12:13:36.954Z,40.63
2018-03-03T12:16:40.295Z,40.55
2018-03-03T12:19:43.554Z,39.15
2018-03-03T12:22:46.708Z,40.95
2018-03-03T12:25:49.869Z,41.48
2018-03-03T12:28:53.071Z,41.08
2018-03-03T12:31:56.243Z,41.30
2018-03-03T12:34:59.506Z,43.92
2018-03-03T12:38:02.721Z,42.43
2018-03-03T12:41:06.390Z,40.73
2018-03-03T12:44:09.531Z,43.37
2018-03-03T12:47:12.896Z,41.90
2018-03-03T12:50:16.159Z,42.37
2018-03-03T12:53:19.297Z,42.23
2018-03-03T12:56:22.678Z,43.40
2018-03-03T12:59:25.967Z,44.17
2018-03-03T13:02:30.194Z,42.97
2018-03-03T13:05:33.593Z,43.70
2018-03-03T13:08:36.835Z,42.80
2018-03-03T13:11:39.995Z,43.67
2018-03-03T13:14:43.370Z,45.43
2018-03-03T13:17:46.637Z,44.00
2018-03-03T13:20:49.824Z,42.37
2018-03-03T13:23:52.970Z,44.63
2018-03-03T13:26:56.262Z,43.93
2018-03-03T13:29:59.432Z,44.37
2018-03-03T13:33:02.724Z,43.07
2018-03-03T13:36:06.051Z,43.37
2018-03-03T13:39:09.319Z,43.70
2018-03-03T13:42:12.493Z,43.97
2018-03-03T13:45:15.660Z,44.17
2018-03-03T13:48:18.876Z,45.43
2018-03-03T13:51:22.036Z,44.07
2018-03-03T13:54:25.297Z,44.53
2018-03-03T13:57:28.465Z,43.47
2018-03-03T14:00:31.681Z,44.87
2018-03-03T14:03:34.836Z,44.00
2018-03-03T14:06:38.071Z,43.87
2018-03-03T14:09:41.259Z,48.38
2018-03-03T14:12:44.477Z,51.53
2018-03-03T14:15:47.631Z,50.38
2018-03-03T14:18:50.982Z,48.33
2018-03-03T14:21:55.237Z,51.70
2018-03-03T14:24:58.494Z,47.67
2018-03-03T14:28:01.664Z,52.35
2018-03-03T14:31:05.066Z,52.07
2018-03-03T14:34:08.289Z,50.50
2018-03-03T14:37:11.570Z,53.23
2018-03-03T14:40:14.899Z,57.07
2018-03-03T14:43:18.104Z,51.43
2018-03-03T14:46:21.765Z,51.27
2018-03-03T14:49:24.967Z,53.37
2018-03-03T14:52:28.182Z,52.63
2018-03-03T14:55:31.766Z,53.50
2018-03-03T14:58:34.983Z,54.27
2018-03-03T15:01:38.166Z,51.50
2018-03-03T15:04:41.337Z,54.13
2018-03-03T15:07:44.856Z,53.07
2018-03-03T15:10:48.770Z,52.90
2018-03-03T15:13:51.980Z,53.60
2018-03-03T15:16:55.740Z,55.83
2018-03-03T15:19:59.043Z,53.10
2018-03-03T15:23:02.311Z,51.47
2018-03-03T15:26:05.616Z,53.93
2018-03-03T15:29:08.889Z,43.73
2018-03-03T15:32:12.232Z,42.50
2018-03-03T15:35:15.547Z,43.10
2018-03-03T15:38:18.790Z,44.73
2018-03-03T15:41:22.145Z,42.90
2018-03-03T15:44:25.474Z,40.83
2018-03-03T15:47:29.269Z,43.50
2018-03-03T15:50:32.530Z,44.10
2018-03-03T15:53:35.826Z,41.43
2018-03-03T15:56:39.159Z,41.90
2018-03-03T15:59:42.324Z,42.33
2018-03-03T16:02:45.588Z,42.17
2018-03-03T16:05:48.849Z,44.83
2018-03-03T16:08:52.052Z,44.87
2018-03-03T16:11:55.379Z,43.77
2018-03-03T16:14:58.854Z,42.30
2018-03-03T16:18:02.263Z,43.00
2018-03-03T16:21:05.603Z,42.43
2018-03-03T16:24:08.903Z,45.50
2018-03-03T16:27:12.468Z,44.17
2018-03-03T16:30:15.832Z,46.53
2018-03-03T16:33:19.258Z,43.43
2018-03-03T16:36:22.535Z,47.03
2018-03-03T16:39:25.863Z,45.17
2018-03-03T16:42:29.385Z,46.30
2018-03-03T16:45:32.698Z,42.80
2018-03-03T16:48:35.964Z,43.57
2018-03-03T16:51:39.358Z,45.47
2018-03-03T16:54:42.777Z,45.20
2018-03-03T16:57:46.106Z,45.37
2018-03-03T17:00:49.470Z,44.27
2018-03-03T17:03:52.696Z,46.27
2018-03-03T17:06:55.929Z,45.67
2018-03-03T17:09:59.235Z,45.37
2018-03-03T17:13:02.536Z,46.90
2018-03-03T17:16:05.974Z,45.93
2018-03-03T17:19:09.097Z,43.77
2018-03-03T17:22:12.342Z,44.07
2018-03-03T17:25:15.614Z,43.53
2018-03-03T17:28:18.974Z,43.60
2018-03-03T17:31:22.268Z,44.77
2018-03-03T17:34:25.562Z,42.63
2018-03-03T17:37:28.848Z,44.30
2018-03-03T17:40:32.139Z,43.63
2018-03-03T17:43:35.341Z,45.50
2018-03-03T17:46:38.577Z,44.60
2018-03-03T17:49:41.755Z,44.57
2018-03-03T17:52:45.014Z,43.30
2018-03-03T17:55:49.330Z,44.83
2018-03-03T17:58:52.631Z,45.10
2018-03-03T18:01:55.938Z,42.90
2018-03-03T18:04:59.118Z,45.37
2018-03-03T18:08:02.329Z,45.37
2018-03-03T18:11:06.439Z,46.47
2018-03-03T18:14:09.636Z,41.43
2018-03-03T18:17:13.933Z,45.77
2018-03-03T18:20:17.643Z,46.07
2018-03-03T18:23:21.208Z,47.07
2018-03-03T18:26:25.336Z,46.20
2018-03-03T18:29:28.714Z,47.53
2018-03-03T18:32:32.026Z,46.03
2018-03-03T18:35:35.297Z,45.80
2018-03-03T18:38:38.702Z,44.83
2018-03-03T18:41:42.067Z,44.97
2018-03-03T18:44:45.385Z,43.77
2018-03-03T18:47:48.614Z,49.30
2018-03-03T18:50:51.878Z,50.23
2018-03-03T18:53:55.198Z,47.00
2018-03-03T18:56:58.704Z,53.27
2018-03-03T19:00:01.996Z,51.43
2018-03-03T19:03:05.291Z,50.97
2018-03-03T19:06:09.425Z,48.37
2018-03-03T19:09:12.699Z,46.77
2018-03-03T19:12:15.993Z,48.77
2018-03-03T19:15:19.223Z,48.73
2018-03-03T19:18:22.499Z,48.83
2018-03-03T19:21:26.784Z,51.70
2018-03-03T19:24:30.041Z,49.50
2018-03-03T19:27:33.330Z,51.67
2018-03-03T19:30:37.459Z,54.42
2018-03-03T19:33:40.762Z,52.80
2018-03-03T19:36:44.783Z,53.77
2018-03-03T19:39:48.027Z,53.23
2018-03-03T19:42:51.367Z,51.83
2018-03-03T19:45:54.618Z,53.63
2018-03-03T19:48:57.959Z,55.40
2018-03-03T19:52:01.265Z,54.20
2018-03-03T19:55:05.030Z,55.17
2018-03-03T19:58:08.404Z,51.53
2018-03-03T20:01:11.880Z,53.97
2018-03-03T20:04:15.939Z,52.90
2018-03-03T20:07:19.232Z,52.97
2018-03-03T20:10:22.727Z,53.80
2018-03-03T20:13:25.982Z,55.73
2018-03-03T20:16:29.278Z,55.30
2018-03-03T20:19:32.510Z,56.07
2018-03-03T20:22:35.778Z,57.00
2018-03-03T20:25:38.940Z,54.63
2018-03-03T20:28:42.363Z,55.78
2018-03-03T20:31:45.731Z,57.13
2018-03-03T20:34:48.915Z,54.10
2018-03-03T20:37:52.278Z,53.30
2018-03-03T20:40:55.561Z,49.70
2018-03-03T20:43:58.866Z,48.27
2018-03-03T20:47:02.165Z,51.83
2018-03-03T20:50:05.423Z,54.10
2018-03-03T20:53:10.114Z,55.57
2018-03-03T20:56:13.368Z,55.30
2018-03-03T20:59:16.693Z,55.80
2018-03-03T21:02:19.964Z,52.65
2018-03-03T21:05:23.189Z,51.47
2018-03-03T21:08:26.441Z,54.33
2018-03-03T21:11:29.736Z,54.13
2018-03-03T21:14:33.045Z,53.20
2018-03-03T21:17:36.729Z,55.47
2018-03-03T21:20:40.113Z,52.63
2018-03-03T21:23:43.304Z,54.30
2018-03-03T21:26:56.407Z,54.40
2018-03-03T21:29:59.596Z,50.80
2018-03-03T21:33:03.726Z,56.83
2018-03-03T21:36:06.874Z,58.43
2018-03-03T21:39:11.033Z,54.57
2018-03-03T21:42:14.233Z,53.13
2018-03-03T21:45:17.386Z,53.78
2018-03-03T21:48:20.541Z,55.33
2018-03-03T21:51:23.792Z,53.47
2018-03-03T21:54:28.955Z,54.70
2018-03-03T21:57:32.180Z,57.27
2018-03-03T22:00:35.284Z,56.93
2018-03-03T22:03:39.463Z,56.77
2018-03-03T22:06:50.344Z,56.13
2018-03-03T22:09:54.692Z,57.00
2018-03-03T22:12:58.881Z,54.20
2018-03-03T22:16:02.103Z,56.57
2018-03-03T22:19:06.266Z,57.83
2018-03-03T22:22:11.408Z,57.73
2018-03-03T22:25:24.207Z,59.20
2018-03-03T22:28:27.392Z,55.63
2018-03-03T22:31:31.538Z,58.37
2018-03-03T22:34:35.672Z,59.70
2018-03-03T22:37:38.832Z,54.77
2018-03-03T22:40:51.706Z,58.83
2018-03-03T22:43:55.510Z,54.77
2018-03-03T22:46:58.729Z,53.27
2018-03-03T22:50:02.896Z,52.57
2018-03-03T22:53:06.184Z,58.77
2018-03-03T22:56:09.364Z,51.90
2018-03-03T22:59:14.519Z,57.50
2018-03-03T23:02:23.251Z,51.03
2018-03-03T23:05:26.439Z,54.63
2018-03-03T23:08:31.580Z,56.43
2018-03-03T23:11:36.737Z,55.57
2018-03-03T23:14:46.442Z,55.67
2018-03-03T23:17:49.641Z,53.75
2018-03-03T23:20:53.807Z,52.00
2018-03-03T23:23:57.856Z,52.80
2018-03-03T23:27:01.039Z,52.47
2018-03-03T23:30:04.460Z,53.93
2018-03-03T23:33:09.726Z,57.60
2018-03-03T23:36:15.968Z,54.57
2018-03-03T23:39:20.126Z,53.70
2018-03-03T23:42:23.261Z,55.07
2018-03-03T23:45:26.464Z,54.23
2018-03-03T23:48:31.644Z,53.90
2018-03-03T23:51:36.821Z,52.63
2018-03-03T23:54:40.040Z,53.60
2018-03-03T23:57:44.194Z,55.13
